Date,TemperatureHighF,TemperatureAvgF,TemperatureLowF,DewpointHighF,DewpointAvgF,DewpointLowF,HumidityHigh,HumidityAvg,HumidityLow,PressureMaxIn,PressureMinIn,WindSpeedMaxMPH,WindSpeedAvgMPH,GustSpeedMaxMPH,PrecipitationSumIn
2013-2-1,37,30,22,23,14,10,70,52,34,30.56,30.33,4,1,14,0.00
2013-2-2,51,39,29,35,28,16,84,67,51,30.33,30.15,4,1,10,0.00
2013-2-3,55,46,39,35,31,25,85,59,35,30.20,30.11,6,2,16,0.00
2013-2-4,58,47,38,45,35,28,92,65,38,30.10,29.92,6,1,14,0.10
2013-2-5,64,51,40,50,45,39,98,81,49,30.03,29.93,5,1,10,0.10
2013-2-6,61,48,41,44,42,39,97,80,52,30.22,30.05,4,1,10,0.00
2013-2-7,69,58,48,56,48,37,93,70,56,30.05,29.87,4,1,8,0.10
2013-2-8,57,45,36,56,40,31,95,84,70,30.32,29.90,4,2,17,0.35
2013-2-9,50,41,31,41,34,28,93,77,55,30.35,30.05,5,1,10,0.01
2013-2-10,60,55,49,58,49,38,96,81,57,30.06,29.76,10,3,21,0.55
2013-2-11,58,51,44,53,35,30,84,55,35,30.21,29.95,5,1,11,0.28
2013-2-12,51,47,40,41,37,34,86,71,53,30.16,29.80,4,1,14,0.01
2013-2-13,46,41,39,42,38,36,95,89,80,30.03,29.79,3,1,13,0.05
2013-2-14,62,48,36,42,37,34,96,71,40,30.08,30.00,6,2,14,0.01
2013-2-15,54,46,37,39,33,26,84,63,36,30.21,30.05,5,1,14,0.00
2013-2-16,41,35,30,27,22,16,73,59,40,30.29,30.21,5,1,12,0.00
2013-2-17,57,43,32,31,26,21,67,50,34,30.29,30.08,6,1,12,0.00
2013-2-18,58,51,44,52,42,31,96,73,53,30.09,29.75,9,3,22,0.81
2013-2-19,50,42,35,42,29,24,84,62,40,30.27,29.96,7,2,15,0.71
2013-2-20,37,34,31,25,19,15,70,56,46,30.38,30.21,3,1,11,0.00
2013-2-21,45,38,33,44,32,23,96,80,51,30.21,29.76,6,2,15,0.78
2013-2-22,49,42,38,42,39,32,97,89,68,30.10,29.88,4,1,9,0.01
2013-2-23,52,39,31,32,31,28,90,72,44,30.08,29.97,3,0,8,0.00
2013-2-24,58,42,31,34,31,28,91,68,39,30.13,29.92,6,1,13,0.00
2013-2-25,59,52,41,54,39,28,96,62,41,29.92,29.35,10,4,22,0.51
2013-2-26,54,45,41,53,40,34,96,82,72,29.82,29.34,10,5,22,0.52
2013-2-27,44,42,40,37,34,30,78,73,67,29.99,29.81,6,3,14,0.00
2013-2-28,42,39,35,32,30,28,80,68,60,30.11,29.99,5,2,12,0.00